sensor_id;sensor_type;location;lat;lon;timestamp;pressure;altitude;pressure_sealevel;temperature;humidity
58761;BME280;44529;47.464;19.014;2023-04-07T00:01:05;100000.91;;;3.83;75.57
58761;BME280;44529;47.464;19.014;2023-04-07T00:04:07;100000.41;;;3.81;77.81
58761;BME280;44529;47.464;19.014;2023-04-07T00:07:10;99999.84;;;3.79;77.88
58761;BME280;44529;47.464;19.014;2023-04-07T00:10:13;99998.53;;;3.82;78.59
58761;BME280;44529;47.464;19.014;2023-04-07T00:13:15;100004.66;;;3.87;77.85
58761;BME280;44529;47.464;19.014;2023-04-07T00:16:17;100009.44;;;3.90;76.92
58761;BME280;44529;47.464;19.014;2023-04-07T00:19:20;100003.31;;;3.90;75.60
58761;BME280;44529;47.464;19.014;2023-04-07T00:22:22;100004.66;;;3.82;78.32
58761;BME280;44529;47.464;19.014;2023-04-07T00:25:25;99990.75;;;3.85;76.85
58761;BME280;44529;47.464;19.014;2023-04-07T00:28:27;99994.50;;;3.84;78.35
58761;BME280;44529;47.464;19.014;2023-04-07T00:31:29;99991.31;;;3.77;79.11
58761;BME280;44529;47.464;19.014;2023-04-07T00:34:32;99988.13;;;3.75;77.82
58761;BME280;44529;47.464;19.014;2023-04-07T00:37:34;99987.03;;;3.71;78.43
58761;BME280;44529;47.464;19.014;2023-04-07T00:40:37;99982.22;;;3.73;79.65
58761;BME280;44529;47.464;19.014;2023-04-07T00:43:39;99981.41;;;3.77;78.13
58761;BME280;44529;47.464;19.014;2023-04-07T00:46:42;99976.84;;;3.88;74.31
58761;BME280;44529;47.464;19.014;2023-04-07T00:49:45;99981.34;;;3.93;77.08
58761;BME280;44529;47.464;19.014;2023-04-07T00:52:47;99980.28;;;3.94;76.30
58761;BME280;44529;47.464;19.014;2023-04-07T00:55:50;99980.81;;;3.91;75.67
58761;BME280;44529;47.464;19.014;2023-04-07T00:58:53;99971.50;;;3.88;75.16
58761;BME280;44529;47.464;19.014;2023-04-07T01:06:16;99970.72;;;3.77;76.62
58761;BME280;44529;47.464;19.014;2023-04-07T01:09:06;99972.31;;;3.78;78.59
58761;BME280;44529;47.464;19.014;2023-04-07T01:12:34;99966.72;;;3.80;75.98
58761;BME280;44529;47.464;19.014;2023-04-07T01:15:39;99965.63;;;3.81;76.05
58761;BME280;44529;47.464;19.014;2023-04-07T01:18:43;99959.50;;;3.80;74.77
58761;BME280;44529;47.464;19.014;2023-04-07T01:21:50;99958.41;;;3.82;74.98
58761;BME280;44529;47.464;19.014;2023-04-07T01:31:17;99953.28;;;3.90;76.00
58761;BME280;44529;47.464;19.014;2023-04-07T01:34:20;99960.00;;;3.88;77.63
58761;BME280;44529;47.464;19.014;2023-04-07T01:37:24;99961.06;;;3.87;76.79
58761;BME280;44529;47.464;19.014;2023-04-07T01:40:28;99948.50;;;3.82;77.12
58761;BME280;44529;47.464;19.014;2023-04-07T01:43:31;99942.59;;;3.85;77.02
58761;BME280;44529;47.464;19.014;2023-04-07T01:46:34;99946.34;;;3.84;76.87
58761;BME280;44529;47.464;19.014;2023-04-07T01:49:38;99943.16;;;3.87;75.96
58761;BME280;44529;47.464;19.014;2023-04-07T01:52:41;99949.53;;;3.91;76.17
58761;BME280;44529;47.464;19.014;2023-04-07T01:55:44;99945.25;;;3.90;75.82
58761;BME280;44529;47.464;19.014;2023-04-07T01:58:46;99948.44;;;3.92;76.15
58761;BME280;44529;47.464;19.014;2023-04-07T02:01:50;99949.00;;;3.89;75.59
58761;BME280;44529;47.464;19.014;2023-04-07T02:04:57;99943.91;;;3.93;76.43
58761;BME280;44529;47.464;19.014;2023-04-07T02:08:05;99950.13;;;3.78;76.64
58761;BME280;44529;47.464;19.014;2023-04-07T02:11:10;99945.03;;;3.82;76.62
58761;BME280;44529;47.464;19.014;2023-04-07T02:14:14;99947.16;;;3.85;76.41
58761;BME280;44529;47.464;19.014;2023-04-07T02:17:22;99944.50;;;3.79;77.51
58761;BME280;44529;47.464;19.014;2023-04-07T02:20:25;99947.75;;;3.71;78.82
58761;BME280;44529;47.464;19.014;2023-04-07T02:23:29;99945.34;;;3.75;78.09
58761;BME280;44529;47.464;19.014;2023-04-07T02:26:35;99952.56;;;3.69;79.34
58761;BME280;44529;47.464;19.014;2023-04-07T02:29:37;99942.91;;;3.73;77.53
58761;BME280;44529;47.464;19.014;2023-04-07T02:32:40;99948.53;;;3.72;78.99
58761;BME280;44529;47.464;19.014;2023-04-07T02:35:42;99942.66;;;3.75;78.31
58761;BME280;44529;47.464;19.014;2023-04-07T02:38:44;99949.31;;;3.77;77.73
58761;BME280;44529;47.464;19.014;2023-04-07T02:41:47;99942.91;;;3.78;79.33
58761;BME280;44529;47.464;19.014;2023-04-07T02:44:49;99951.19;;;3.77;78.98
58761;BME280;44529;47.464;19.014;2023-04-07T02:47:52;99937.53;;;3.78;78.96
58761;BME280;44529;47.464;19.014;2023-04-07T02:50:54;99939.44;;;3.73;79.70
58761;BME280;44529;47.464;19.014;2023-04-07T02:53:56;99946.66;;;3.72;79.72
58761;BME280;44529;47.464;19.014;2023-04-07T02:56:59;99944.03;;;3.67;79.94
58761;BME280;44529;47.464;19.014;2023-04-07T03:00:02;99947.75;;;3.66;81.04
58761;BME280;44529;47.464;19.014;2023-04-07T03:03:06;99947.00;;;3.56;81.69
58761;BME280;44529;47.464;19.014;2023-04-07T03:06:09;99944.84;;;3.58;81.58
58761;BME280;44529;47.464;19.014;2023-04-07T03:09:13;99944.31;;;3.61;81.12
58761;BME280;44529;47.464;19.014;2023-04-07T03:12:16;99943.75;;;3.69;80.92
58761;BME280;44529;47.464;19.014;2023-04-07T03:15:18;99939.78;;;3.61;80.60
58761;BME280;44529;47.464;19.014;2023-04-07T03:18:21;99937.91;;;3.57;80.27
58761;BME280;44529;47.464;19.014;2023-04-07T03:21:24;99942.19;;;3.52;82.22
58761;BME280;44529;47.464;19.014;2023-04-07T03:24:27;99948.31;;;3.63;80.20
58761;BME280;44529;47.464;19.014;2023-04-07T03:27:29;99942.69;;;3.60;81.17
58761;BME280;44529;47.464;19.014;2023-04-07T03:30:31;99938.19;;;3.50;80.94
58761;BME280;44529;47.464;19.014;2023-04-07T03:33:34;99943.75;;;3.64;80.62
58761;BME280;44529;47.464;19.014;2023-04-07T03:36:37;99931.75;;;3.61;80.15
58761;BME280;44529;47.464;19.014;2023-04-07T03:39:39;99933.06;;;3.64;80.52
58761;BME280;44529;47.464;19.014;2023-04-07T03:42:44;99939.78;;;3.56;80.61
58761;BME280;44529;47.464;19.014;2023-04-07T03:45:48;99936.31;;;3.50;82.00
58761;BME280;44529;47.464;19.014;2023-04-07T03:48:51;99937.91;;;3.57;81.38
58761;BME280;44529;47.464;19.014;2023-04-07T03:51:55;99939.28;;;3.49;83.87
58761;BME280;44529;47.464;19.014;2023-04-07T03:54:57;99938.19;;;3.50;83.82
58761;BME280;44529;47.464;19.014;2023-04-07T03:58:02;99942.72;;;3.55;82.13
58761;BME280;44529;47.464;19.014;2023-04-07T04:01:05;99938.97;;;3.56;82.04
58761;BME280;44529;47.464;19.014;2023-04-07T04:04:07;99946.16;;;3.60;82.26
58761;BME280;44529;47.464;19.014;2023-04-07T04:07:10;99948.09;;;3.55;82.65
58761;BME280;44529;47.464;19.014;2023-04-07T04:10:13;99952.34;;;3.50;83.28
58761;BME280;44529;47.464;19.014;2023-04-07T04:13:16;99950.47;;;3.51;83.85
58761;BME280;44529;47.464;19.014;2023-04-07T04:16:20;99959.81;;;3.53;81.92
58761;BME280;44529;47.464;19.014;2023-04-07T04:19:23;99959.00;;;3.58;80.80
58761;BME280;44529;47.464;19.014;2023-04-07T04:22:25;99959.81;;;3.64;80.79
58761;BME280;44529;47.464;19.014;2023-04-07T04:25:28;99961.41;;;3.65;81.58
58761;BME280;44529;47.464;19.014;2023-04-07T04:28:31;99968.34;;;3.71;80.82
58761;BME280;44529;47.464;19.014;2023-04-07T04:31:35;99964.06;;;3.65;80.68
58761;BME280;44529;47.464;19.014;2023-04-07T04:34:38;99969.69;;;3.63;81.76
58761;BME280;44529;47.464;19.014;2023-04-07T04:37:43;99972.88;;;3.65;82.11
58761;BME280;44529;47.464;19.014;2023-04-07T04:40:47;99970.50;;;3.64;82.47
58761;BME280;44529;47.464;19.014;2023-04-07T04:43:51;99973.97;;;3.69;81.84
58761;BME280;44529;47.464;19.014;2023-04-07T04:46:54;99967.81;;;3.69;82.39
58761;BME280;44529;47.464;19.014;2023-04-07T04:49:56;99972.09;;;3.70;82.32
58761;BME280;44529;47.464;19.014;2023-04-07T04:52:59;99971.28;;;3.64;81.67
58761;BME280;44529;47.464;19.014;2023-04-07T04:56:01;99983.56;;;3.75;81.83
58761;BME280;44529;47.464;19.014;2023-04-07T04:59:07;99986.47;;;3.84;81.88
58761;BME280;44529;47.464;19.014;2023-04-07T05:02:10;99990.50;;;3.76;81.80
58761;BME280;44529;47.464;19.014;2023-04-07T05:05:14;99989.44;;;3.77;82.48
58761;BME280;44529;47.464;19.014;2023-04-07T05:08:17;99990.22;;;3.78;81.63
58761;BME280;44529;47.464;19.014;2023-04-07T05:11:20;99978.16;;;3.86;82.13
58761;BME280;44529;47.464;19.014;2023-04-07T05:14:23;99983.22;;;3.92;81.60
58761;BME280;44529;47.464;19.014;2023-04-07T05:17:26;100003.56;;;3.93;80.59
58761;BME280;44529;47.464;19.014;2023-04-07T05:20:28;100004.31;;;4.04;78.51
58761;BME280;44529;47.464;19.014;2023-04-07T05:23:31;99998.44;;;4.02;78.32
58761;BME280;44529;47.464;19.014;2023-04-07T05:26:33;100006.75;;;4.00;79.15
58761;BME280;44529;47.464;19.014;2023-04-07T05:29:37;100004.59;;;4.02;78.63
58761;BME280;44529;47.464;19.014;2023-04-07T05:32:40;100004.31;;;3.99;78.83
58761;BME280;44529;47.464;19.014;2023-04-07T05:35:44;100001.09;;;4.07;79.27
58761;BME280;44529;47.464;19.014;2023-04-07T05:38:47;100000.00;;;4.13;77.91
58761;BME280;44529;47.464;19.014;2023-04-07T05:41:51;99997.56;;;4.17;77.98
58761;BME280;44529;47.464;19.014;2023-04-07T05:44:55;100008.81;;;4.19;79.23
58761;BME280;44529;47.464;19.014;2023-04-07T05:47:58;100005.56;;;4.27;79.26
58761;BME280;44529;47.464;19.014;2023-04-07T05:51:01;100018.91;;;4.32;77.90
58761;BME280;44529;47.464;19.014;2023-04-07T05:54:04;100010.81;;;4.47;78.36
58761;BME280;44529;47.464;19.014;2023-04-07T05:57:08;100004.06;;;4.55;76.62
58761;BME280;44529;47.464;19.014;2023-04-07T06:00:12;100004.03;;;4.60;76.79
58761;BME280;44529;47.464;19.014;2023-04-07T06:03:15;100010.97;;;4.66;77.15
58761;BME280;44529;47.464;19.014;2023-04-07T06:06:18;100010.22;;;4.50;76.70
58761;BME280;44529;47.464;19.014;2023-04-07T06:09:21;100017.72;;;4.53;78.10
58761;BME280;44529;47.464;19.014;2023-04-07T06:12:24;100016.03;;;4.68;77.32
58761;BME280;44529;47.464;19.014;2023-04-07T06:15:26;100013.13;;;4.64;77.50
58761;BME280;44529;47.464;19.014;2023-04-07T06:18:28;100007.47;;;4.66;76.46
58761;BME280;44529;47.464;19.014;2023-04-07T06:21:32;100005.50;;;4.76;76.90
58761;BME280;44529;47.464;19.014;2023-04-07T06:24:34;100009.22;;;4.85;76.45
58761;BME280;44529;47.464;19.014;2023-04-07T06:27:37;100009.28;;;4.75;76.37
58761;BME280;44529;47.464;19.014;2023-04-07T06:30:40;100005.50;;;4.76;75.65
58761;BME280;44529;47.464;19.014;2023-04-07T06:33:44;100011.62;;;4.82;75.54
58761;BME280;44529;47.464;19.014;2023-04-07T06:36:47;100019.91;;;4.91;74.95
58761;BME280;44529;47.464;19.014;2023-04-07T06:39:49;100017.00;;;4.82;75.48
58761;BME280;44529;47.464;19.014;2023-04-07T06:42:52;100018.06;;;4.86;77.33
58761;BME280;44529;47.464;19.014;2023-04-07T06:45:56;100018.81;;;4.92;76.49
58761;BME280;44529;47.464;19.014;2023-04-07T06:48:58;100027.97;;;4.85;76.69
58761;BME280;44529;47.464;19.014;2023-04-07T06:52:01;100030.34;;;4.92;76.43
58761;BME280;44529;47.464;19.014;2023-04-07T06:55:03;100035.72;;;4.87;76.74
58761;BME280;44529;47.464;19.014;2023-04-07T06:58:06;100039.75;;;4.84;76.84
58761;BME280;44529;47.464;19.014;2023-04-07T07:01:09;100038.72;;;4.80;77.01
58761;BME280;44529;47.464;19.014;2023-04-07T07:04:11;100040.84;;;4.83;77.65
58761;BME280;44529;47.464;19.014;2023-04-07T07:07:14;100043.28;;;4.80;78.86
58761;BME280;44529;47.464;19.014;2023-04-07T07:10:16;100051.03;;;4.76;79.50
58761;BME280;44529;47.464;19.014;2023-04-07T07:13:21;100050.78;;;4.78;80.62
58761;BME280;44529;47.464;19.014;2023-04-07T07:16:24;100055.06;;;4.79;80.23
58761;BME280;44529;47.464;19.014;2023-04-07T07:19:26;100067.16;;;4.71;81.11
58761;BME280;44529;47.464;19.014;2023-04-07T07:22:29;100068.28;;;4.65;84.23
58761;BME280;44529;47.464;19.014;2023-04-07T07:25:31;100074.44;;;4.60;85.04
58761;BME280;44529;47.464;19.014;2023-04-07T07:28:33;100082.50;;;4.55;85.65
58761;BME280;44529;47.464;19.014;2023-04-07T07:31:36;100081.47;;;4.51;86.40
58761;BME280;44529;47.464;19.014;2023-04-07T07:34:38;100090.53;;;4.55;87.90
58761;BME280;44529;47.464;19.014;2023-04-07T07:37:40;100095.09;;;4.55;87.30
58761;BME280;44529;47.464;19.014;2023-04-07T07:40:43;100094.31;;;4.49;88.10
58761;BME280;44529;47.464;19.014;2023-04-07T07:43:46;100086.53;;;4.58;86.93
58761;BME280;44529;47.464;19.014;2023-04-07T07:46:49;100093.19;;;4.60;86.41
58761;BME280;44529;47.464;19.014;2023-04-07T07:49:52;100091.84;;;4.63;86.33
58761;BME280;44529;47.464;19.014;2023-04-07T07:52:55;100089.94;;;4.69;86.41
58761;BME280;44529;47.464;19.014;2023-04-07T07:55:57;100096.66;;;4.61;87.31
58761;BME280;44529;47.464;19.014;2023-04-07T07:58:59;100107.38;;;4.61;90.57
58761;BME280;44529;47.464;19.014;2023-04-07T08:02:02;100105.47;;;4.72;89.68
58761;BME280;44529;47.464;19.014;2023-04-07T08:05:05;100114.22;;;4.82;89.10
58761;BME280;44529;47.464;19.014;2023-04-07T08:08:07;100121.72;;;4.85;86.82
58761;BME280;44529;47.464;19.014;2023-04-07T08:11:10;100118.75;;;4.87;87.38
58761;BME280;44529;47.464;19.014;2023-04-07T08:14:13;100121.47;;;4.82;88.38
58761;BME280;44529;47.464;19.014;2023-04-07T08:17:15;100125.75;;;4.83;88.16
58761;BME280;44529;47.464;19.014;2023-04-07T08:20:18;100127.06;;;4.91;89.12
58761;BME280;44529;47.464;19.014;2023-04-07T08:23:20;100129.94;;;4.99;89.85
58761;BME280;44529;47.464;19.014;2023-04-07T08:26:23;100132.81;;;5.13;87.80
58761;BME280;44529;47.464;19.014;2023-04-07T08:29:25;100122.69;;;5.05;87.43
58761;BME280;44529;47.464;19.014;2023-04-07T08:32:39;100117.53;;;5.13;87.74
58761;BME280;44529;47.464;19.014;2023-04-07T08:35:42;100128.19;;;5.24;86.65
58761;BME280;44529;47.464;19.014;2023-04-07T08:38:44;100127.09;;;5.25;84.79
58761;BME280;44529;47.464;19.014;2023-04-07T08:41:47;100130.66;;;5.15;86.34
58761;BME280;44529;47.464;19.014;2023-04-07T08:44:51;100136.28;;;5.13;85.22
58761;BME280;44529;47.464;19.014;2023-04-07T08:47:55;100135.66;;;5.27;83.67
58761;BME280;44529;47.464;19.014;2023-04-07T08:51:04;100130.28;;;5.32;85.53
58761;BME280;44529;47.464;19.014;2023-04-07T08:54:12;100135.00;;;5.45;86.67
58761;BME280;44529;47.464;19.014;2023-04-07T08:57:14;100138.09;;;5.62;83.06
58761;BME280;44529;47.464;19.014;2023-04-07T09:00:18;100136.22;;;5.63;83.02
58761;BME280;44529;47.464;19.014;2023-04-07T09:03:21;100131.59;;;5.68;82.60
58761;BME280;44529;47.464;19.014;2023-04-07T09:06:24;100126.72;;;5.76;83.25
58761;BME280;44529;47.464;19.014;2023-04-07T09:09:28;100133.97;;;5.75;83.36
58761;BME280;44529;47.464;19.014;2023-04-07T09:12:31;100131.50;;;5.79;84.45
58761;BME280;44529;47.464;19.014;2023-04-07T09:15:34;100133.84;;;5.85;83.47
58761;BME280;44529;47.464;19.014;2023-04-07T09:18:39;100136.94;;;5.74;84.04
58761;BME280;44529;47.464;19.014;2023-04-07T09:21:48;100127.53;;;5.71;84.42
58761;BME280;44529;47.464;19.014;2023-04-07T09:24:51;100133.66;;;5.77;85.45
58761;BME280;44529;47.464;19.014;2023-04-07T09:28:01;100133.62;;;5.82;82.63
58761;BME280;44529;47.464;19.014;2023-04-07T09:31:04;100130.66;;;5.83;82.04
58761;BME280;44529;47.464;19.014;2023-04-07T09:34:23;100131.38;;;5.99;84.26
58761;BME280;44529;47.464;19.014;2023-04-07T09:37:26;100134.88;;;5.94;83.18
58761;BME280;44529;47.464;19.014;2023-04-07T09:40:28;100138.22;;;6.10;83.87
58761;BME280;44529;47.464;19.014;2023-04-07T09:43:31;100145.66;;;6.18;83.24
58761;BME280;44529;47.464;19.014;2023-04-07T09:46:33;100132.78;;;6.15;84.31
58761;BME280;44529;47.464;19.014;2023-04-07T09:49:48;100137.06;;;6.16;83.88
58761;BME280;44529;47.464;19.014;2023-04-07T09:52:52;100142.91;;;6.23;84.18
58761;BME280;44529;47.464;19.014;2023-04-07T09:55:55;100140.22;;;6.23;84.08
58761;BME280;44529;47.464;19.014;2023-04-07T09:58:58;100142.72;;;6.15;81.99
58761;BME280;44529;47.464;19.014;2023-04-07T10:02:02;100140.69;;;6.07;80.14
58761;BME280;44529;47.464;19.014;2023-04-07T10:05:05;100140.22;;;6.23;83.28
58761;BME280;44529;47.464;19.014;2023-04-07T10:08:08;100134.22;;;6.08;82.03
58761;BME280;44529;47.464;19.014;2023-04-07T10:11:11;100132.34;;;6.08;79.73
58761;BME280;44529;47.464;19.014;2023-04-07T10:14:14;100143.34;;;6.31;79.31
58761;BME280;44529;47.464;19.014;2023-04-07T10:17:18;100142.50;;;6.35;80.05
58761;BME280;44529;47.464;19.014;2023-04-07T10:20:22;100146.56;;;6.33;79.12
58761;BME280;44529;47.464;19.014;2023-04-07T10:23:46;100143.25;;;6.41;81.65
58761;BME280;44529;47.464;19.014;2023-04-07T10:26:53;100142.09;;;6.71;79.10
58761;BME280;44529;47.464;19.014;2023-04-07T10:29:59;100144.56;;;6.67;77.99
58761;BME280;44529;47.464;19.014;2023-04-07T10:33:02;100140.97;;;6.53;78.77
58761;BME280;44529;47.464;19.014;2023-04-07T10:36:06;100151.22;;;6.51;79.69
58761;BME280;44529;47.464;19.014;2023-04-07T10:49:07;100138.78;;;6.55;79.93
58761;BME280;44529;47.464;19.014;2023-04-07T10:55:39;100143.34;;;6.78;76.93
58761;BME280;44529;47.464;19.014;2023-04-07T10:58:41;100137.03;;;6.88;77.50
58761;BME280;44529;47.464;19.014;2023-04-07T11:01:44;100146.31;;;6.77;77.24
58761;BME280;44529;47.464;19.014;2023-04-07T11:04:46;100149.97;;;6.62;76.39
58761;BME280;44529;47.464;19.014;2023-04-07T11:07:51;100147.59;;;6.61;78.07
58761;BME280;44529;47.464;19.014;2023-04-07T11:10:56;100148.87;;;6.63;78.39
58761;BME280;44529;47.464;19.014;2023-04-07T11:13:59;100154.78;;;6.65;78.29
58761;BME280;44529;47.464;19.014;2023-04-07T11:17:01;100154.22;;;6.68;79.54
58761;BME280;44529;47.464;19.014;2023-04-07T11:20:05;100149.94;;;6.67;78.89
58761;BME280;44529;47.464;19.014;2023-04-07T11:23:12;100148.84;;;6.68;78.33
58761;BME280;44529;47.464;19.014;2023-04-07T11:26:15;100153.31;;;6.54;77.47
58761;BME280;44529;47.464;19.014;2023-04-07T11:29:27;100153.81;;;6.56;77.72
58761;BME280;44529;47.464;19.014;2023-04-07T11:32:29;100153.81;;;6.56;77.96
58761;BME280;44529;47.464;19.014;2023-04-07T11:35:31;100149.25;;;6.57;78.36
58761;BME280;44529;47.464;19.014;2023-04-07T11:38:35;100148.87;;;6.63;78.66
58761;BME280;44529;47.464;19.014;2023-04-07T11:41:45;100147.28;;;6.62;78.56
58761;BME280;44529;47.464;19.014;2023-04-07T11:44:48;100151.56;;;6.63;77.92
58761;BME280;44529;47.464;19.014;2023-04-07T11:47:52;100153.19;;;6.64;78.18
58761;BME280;44529;47.464;19.014;2023-04-07T11:50:54;100149.81;;;6.77;78.18
58761;BME280;44529;47.464;19.014;2023-04-07T11:53:56;100149.25;;;6.57;77.46
58761;BME280;44529;47.464;19.014;2023-04-07T11:56:59;100154.44;;;6.48;78.15
58761;BME280;44529;47.464;19.014;2023-04-07T12:00:09;100150.72;;;6.44;78.28
58761;BME280;44529;47.464;19.014;2023-04-07T12:03:12;100154.84;;;6.36;79.71
58761;BME280;44529;47.464;19.014;2023-04-07T12:06:26;100159.66;;;6.39;79.91
58761;BME280;44529;47.464;19.014;2023-04-07T12:09:32;100155.37;;;6.38;78.80
58761;BME280;44529;47.464;19.014;2023-04-07T12:12:37;100160.41;;;6.45;79.36
58761;BME280;44529;47.464;19.014;2023-04-07T12:15:40;100159.37;;;6.41;78.34
58761;BME280;44529;47.464;19.014;2023-04-07T12:18:43;100160.88;;;6.52;79.56
58761;BME280;44529;47.464;19.014;2023-04-07T12:21:46;100148.78;;;6.49;78.90
58761;BME280;44529;47.464;19.014;2023-04-07T12:24:48;100146.56;;;6.57;77.56
58761;BME280;44529;47.464;19.014;2023-04-07T12:27:51;100150.72;;;6.68;76.64
58761;BME280;44529;47.464;19.014;2023-04-07T12:30:54;100144.56;;;6.67;76.15
58761;BME280;44529;47.464;19.014;2023-04-07T12:33:57;100148.69;;;6.60;77.57
58761;BME280;44529;47.464;19.014;2023-04-07T12:36:59;100150.22;;;6.66;78.01
58761;BME280;44529;47.464;19.014;2023-04-07T12:40:02;100145.94;;;6.65;77.11
58761;BME280;44529;47.464;19.014;2023-04-07T12:43:05;100143.19;;;6.70;76.58
58761;BME280;44529;47.464;19.014;2023-04-07T12:46:08;100138.53;;;6.75;76.63
58761;BME280;44529;47.464;19.014;2023-04-07T12:49:10;100147.69;;;6.74;76.03
58761;BME280;44529;47.464;19.014;2023-04-07T12:52:13;100146.53;;;6.81;76.39
58761;BME280;44529;47.464;19.014;2023-04-07T12:55:15;100152.94;;;6.85;78.03
58761;BME280;44529;47.464;19.014;2023-04-07T12:58:17;100159.66;;;6.82;77.29
58761;BME280;44529;47.464;19.014;2023-04-07T13:01:20;100157.38;;;6.94;76.59
58761;BME280;44529;47.464;19.014;2023-04-07T13:04:22;100158.09;;;7.00;76.35
58761;BME280;44529;47.464;19.014;2023-04-07T13:07:27;100152.44;;;7.01;75.97
58761;BME280;44529;47.464;19.014;2023-04-07T13:10:30;100153.69;;;7.09;74.73
58761;BME280;44529;47.464;19.014;2023-04-07T13:13:32;100160.28;;;6.98;74.60
58761;BME280;44529;47.464;19.014;2023-04-07T13:16:35;100153.94;;;6.89;74.96
58761;BME280;44529;47.464;19.014;2023-04-07T13:19:37;100153.75;;;6.85;75.50
58761;BME280;44529;47.464;19.014;2023-04-07T13:22:41;100145.97;;;6.84;76.24
58761;BME280;44529;47.464;19.014;2023-04-07T13:25:56;100152.72;;;7.00;74.46
58761;BME280;44529;47.464;19.014;2023-04-07T13:28:58;100155.84;;;7.07;74.10
58761;BME280;44529;47.464;19.014;2023-04-07T13:32:08;100150.56;;;7.02;75.51
58761;BME280;44529;47.464;19.014;2023-04-07T13:35:11;100150.56;;;7.02;75.49
58761;BME280;44529;47.464;19.014;2023-04-07T13:38:13;100151.56;;;7.06;72.76
58761;BME280;44529;47.464;19.014;2023-04-07T13:41:16;100147.16;;;7.15;73.33
58761;BME280;44529;47.464;19.014;2023-04-07T13:44:18;100147.72;;;7.12;74.94
58761;BME280;44529;47.464;19.014;2023-04-07T13:47:20;100148.22;;;6.95;73.73
58761;BME280;44529;47.464;19.014;2023-04-07T13:50:23;100150.62;;;6.97;73.54
58761;BME280;44529;47.464;19.014;2023-04-07T13:53:26;100156.66;;;7.07;74.34
58761;BME280;44529;47.464;19.014;2023-04-07T13:56:29;100158.16;;;6.95;74.88
58761;BME280;44529;47.464;19.014;2023-04-07T13:59:32;100164.44;;;6.90;74.65
58761;BME280;44529;47.464;19.014;2023-04-07T14:02:34;100170.69;;;7.04;75.04
58761;BME280;44529;47.464;19.014;2023-04-07T14:05:37;100169.37;;;7.02;75.26
58761;BME280;44529;47.464;19.014;2023-04-07T14:08:39;100166.16;;;7.00;75.95
58761;BME280;44529;47.464;19.014;2023-04-07T14:11:42;100164.50;;;7.04;76.04
58761;BME280;44529;47.464;19.014;2023-04-07T14:14:44;100167.03;;;6.95;75.42
58761;BME280;44529;47.464;19.014;2023-04-07T14:17:46;100162.66;;;6.81;74.66
58761;BME280;44529;47.464;19.014;2023-04-07T14:20:49;100167.03;;;6.76;75.16
58761;BME280;44529;47.464;19.014;2023-04-07T14:23:52;100165.03;;;6.82;74.89
58761;BME280;44529;47.464;19.014;2023-04-07T14:26:55;100161.00;;;6.85;76.01
58761;BME280;44529;47.464;19.014;2023-04-07T14:29:57;100162.84;;;6.89;75.12
58761;BME280;44529;47.464;19.014;2023-04-07T14:33:00;100163.09;;;6.88;73.79
58761;BME280;44529;47.464;19.014;2023-04-07T14:36:06;100164.12;;;6.92;73.67
58761;BME280;44529;47.464;19.014;2023-04-07T14:39:08;100169.81;;;6.90;75.13
58761;BME280;44529;47.464;19.014;2023-04-07T14:42:11;100167.22;;;6.80;75.07
58761;BME280;44529;47.464;19.014;2023-04-07T14:45:14;100164.19;;;6.87;74.52
58761;BME280;44529;47.464;19.014;2023-04-07T14:48:16;100165.41;;;6.75;74.55
58761;BME280;44529;47.464;19.014;2023-04-07T14:51:20;100168.03;;;6.81;75.59
58761;BME280;44529;47.464;19.014;2023-04-07T14:54:23;100176.09;;;6.81;75.37
58761;BME280;44529;47.464;19.014;2023-04-07T14:57:25;100176.59;;;6.83;74.76
58761;BME280;44529;47.464;19.014;2023-04-07T15:00:28;100173.75;;;6.74;74.92
58761;BME280;44529;47.464;19.014;2023-04-07T15:03:30;100176.44;;;6.74;74.36
58761;BME280;44529;47.464;19.014;2023-04-07T15:06:33;100176.22;;;6.70;75.56
58761;BME280;44529;47.464;19.014;2023-04-07T15:09:35;100170.56;;;6.72;74.07
58761;BME280;44529;47.464;19.014;2023-04-07T15:12:38;100176.22;;;6.70;75.02
58761;BME280;44529;47.464;19.014;2023-04-07T15:15:40;100175.34;;;6.75;75.18
58761;BME280;44529;47.464;19.014;2023-04-07T15:18:44;100182.47;;;6.66;76.38
58761;BME280;44529;47.464;19.014;2023-04-07T15:21:48;100184.06;;;6.67;75.83
58761;BME280;44529;47.464;19.014;2023-04-07T15:24:50;100177.09;;;6.66;74.50
58761;BME280;44529;47.464;19.014;2023-04-07T15:27:52;100178.97;;;6.65;74.36
58761;BME280;44529;47.464;19.014;2023-04-07T15:30:55;100185.34;;;6.69;75.26
58761;BME280;44529;47.464;19.014;2023-04-07T15:33:57;100179.47;;;6.67;75.55
58761;BME280;44529;47.464;19.014;2023-04-07T15:37:00;100182.66;;;6.69;74.91
58761;BME280;44529;47.464;19.014;2023-04-07T15:40:05;100186.19;;;6.70;75.28
58761;BME280;44529;47.464;19.014;2023-04-07T15:43:08;100185.69;;;6.63;76.81
58761;BME280;44529;47.464;19.014;2023-04-07T15:46:12;100188.63;;;6.66;76.40
58761;BME280;44529;47.464;19.014;2023-04-07T15:49:14;100184.06;;;6.67;76.27
58761;BME280;44529;47.464;19.014;2023-04-07T15:52:21;100189.13;;;6.68;76.00
58761;BME280;44529;47.464;19.014;2023-04-07T15:55:23;100187.31;;;6.64;77.31
58761;BME280;44529;47.464;19.014;2023-04-07T15:58:25;100182.81;;;6.59;77.19
58761;BME280;44529;47.464;19.014;2023-04-07T16:01:28;100189.78;;;6.60;78.01
58761;BME280;44529;47.464;19.014;2023-04-07T16:04:31;100186.50;;;6.63;77.86
58761;BME280;44529;47.464;19.014;2023-04-07T16:07:33;100196.97;;;6.65;77.73
58761;BME280;44529;47.464;19.014;2023-04-07T16:10:36;100198.88;;;6.64;78.29
58761;BME280;44529;47.464;19.014;2023-04-07T16:13:38;100192.75;;;6.59;76.97
58761;BME280;44529;47.464;19.014;2023-04-07T16:16:40;100191.16;;;6.58;77.17
58761;BME280;44529;47.464;19.014;2023-04-07T16:19:44;100202.16;;;6.56;78.69
58761;BME280;44529;47.464;19.014;2023-04-07T16:22:47;100204.84;;;6.56;78.43
58761;BME280;44529;47.464;19.014;2023-04-07T16:25:49;100208.91;;;6.54;77.68